Time;durP1;ratioP1;P1;durP2;ratioP2;P2;SDS_P1;SDS_P2;PMS_P1;PMS_P2;Temp;Humidity;BMP_temperature;BMP_pressure;BME280_temperature;BME280_humidity;BME280_pressure;Samples;Min_cycle;Max_cycle;Signal;HPM_P1;HPM_P2
2023/03/18 00:03:14;;;;;;;6.63;4.00;;;;;;;15.02;38.12;99133.91;10392519;28;20231;-37
2023/03/18 00:08:17;;;;;;;5.10;3.70;;;;;;;14.50;39.01;99167.47;10388638;28;20339;-37
2023/03/18 00:13:19;;;;;;;4.70;3.90;;;;;;;14.18;38.20;99170.31;10395150;28;20604;-38
2023/03/18 00:18:20;;;;;;;6.67;3.50;;;;;;;13.77;39.39;99176.28;10398126;28;20221;-36
2023/03/18 00:23:22;;;;;;;6.23;3.47;;;;;;;14.04;38.44;99203.75;10400819;28;20229;-37
2023/03/18 00:28:24;;;;;;;4.63;3.20;;;;;;;14.47;38.26;99185.94;10397131;28;20236;-37
2023/03/18 00:33:26;;;;;;;5.07;3.47;;;;;;;13.86;39.13;99204.53;10393988;28;20241;-37
2023/03/18 00:38:29;;;;;;;5.10;2.63;;;;;;;14.63;37.83;99190.72;10402832;28;20232;-37
2023/03/18 00:43:34;;;;;;;4.67;3.23;;;;;;;15.10;37.72;99177.50;10394805;28;20236;-36
2023/03/18 00:48:36;;;;;;;4.73;3.40;;;;;;;14.24;37.96;99226.97;10393006;28;20228;-36
2023/03/18 00:53:39;;;;;;;5.87;3.70;;;;;;;14.18;38.25;99245.66;10406246;28;20241;-36
2023/03/18 00:58:41;;;;;;;6.40;4.00;;;;;;;14.53;37.81;99231.63;10399349;28;20232;-36
2023/03/18 01:03:44;;;;;;;5.23;3.90;;;;;;;13.85;38.32;99237.81;10394069;28;20235;-36
2023/03/18 01:08:47;;;;;;;4.53;3.37;;;;;;;13.45;39.02;99222.84;10397977;28;20262;-36
2023/03/18 01:13:49;;;;;;;6.67;3.40;;;;;;;14.78;37.66;99223.47;10397824;28;20244;-35
2023/03/18 01:18:52;;;;;;;3.77;3.00;;;;;;;14.36;37.20;99212.56;10398667;28;20323;-36
2023/03/18 01:23:54;;;;;;;5.37;3.13;;;;;;;15.58;36.39;99191.13;10386441;28;20718;-36
2023/03/18 01:28:56;;;;;;;3.67;3.37;;;;;;;14.84;37.05;99234.44;10405256;28;20337;-36
2023/03/18 01:33:58;;;;;;;6.20;3.43;;;;;;;15.70;36.01;99163.09;10387440;28;20240;-36
2023/03/18 01:39:00;;;;;;;4.77;3.30;;;;;;;16.34;35.68;99177.78;10391789;28;20239;-37
2023/03/18 01:44:03;;;;;;;4.07;3.33;;;;;;;15.21;36.82;99218.19;10392604;28;20765;-36
2023/03/18 01:49:21;;;;;;;4.47;3.30;;;;;;;13.80;37.67;99197.34;10396986;28;20710;-36
2023/03/18 01:54:25;;;;;;;4.40;3.53;;;;;;;13.31;39.39;99223.94;10390016;28;20665;-36
2023/03/18 01:59:31;;;;;;;7.77;3.63;;;;;;;13.93;38.61;99234.88;10391690;28;20753;-36
2023/03/18 02:04:42;;;;;;;3.43;3.10;;;;;;;13.73;38.67;99228.84;10392102;28;20698;-35
2023/03/18 02:09:45;;;;;;;6.00;3.83;;;;;;;13.36;39.29;99228.69;10394623;28;20221;-36
2023/03/18 02:14:49;;;;;;;4.80;3.17;;;;;;;12.50;39.72;99167.13;10390625;28;21148;-37
2023/03/18 02:20:18;;;;;;;3.13;2.70;;;;;;;13.02;39.40;99226.13;10394814;28;20316;-36
2023/03/18 02:25:24;;;;;;;4.63;3.53;;;;;;;13.70;38.78;99210.44;10395904;28;20225;-36
2023/03/18 02:30:32;;;;;;;3.47;3.17;;;;;;;13.04;39.14;99224.09;10399866;28;20248;-36
2023/03/18 02:35:35;;;;;;;4.03;2.80;;;;;;;13.17;38.58;99233.09;10388918;28;20260;-37
2023/03/18 02:40:40;;;;;;;3.43;2.60;;;;;;;13.57;38.68;99220.28;10401952;28;20262;-36
2023/03/18 02:46:10;;;;;;;4.80;2.80;;;;;;;14.28;37.56;99198.59;10395688;28;20224;-36
2023/03/18 02:51:14;;;;;;;3.30;2.73;;;;;;;11.32;39.70;99110.72;10384723;28;20228;-36
2023/03/18 02:56:16;;;;;;;5.20;2.73;;;;;;;12.59;39.60;99244.69;10401902;28;20235;-37
2023/03/18 03:01:19;;;;;;;3.00;2.33;;;;;;;13.69;37.95;99225.75;10397286;28;20215;-37
2023/03/18 03:06:21;;;;;;;3.07;2.40;;;;;;;13.20;38.02;99246.13;10399018;28;20248;-37
2023/03/18 03:11:23;;;;;;;4.50;2.80;;;;;;;13.88;37.92;99229.31;10397568;28;20243;-39
2023/03/18 03:16:25;;;;;;;6.03;2.47;;;;;;;13.05;38.25;99271.38;10388170;28;20228;-37
2023/03/18 03:21:27;;;;;;;3.93;2.90;;;;;;;14.02;38.22;99211.22;10401239;28;20241;-37
2023/03/18 03:26:30;;;;;;;2.63;2.20;;;;;;;13.76;38.16;99236.47;10388882;28;20252;-37
2023/03/18 03:31:33;;;;;;;2.87;2.50;;;;;;;13.13;38.64;99264.94;10384869;28;20655;-37
2023/03/18 03:36:35;;;;;;;5.47;2.77;;;;;;;13.91;37.48;99250.41;10389755;28;20239;-36
2023/03/18 03:41:37;;;;;;;2.80;2.60;;;;;;;13.82;37.90;99265.19;10388613;28;20509;-37
2023/03/18 03:46:39;;;;;;;2.63;2.30;;;;;;;11.94;40.17;99181.03;10395738;28;20237;-37
2023/03/18 03:51:41;;;;;;;5.80;2.77;;;;;;;13.81;37.85;99252.78;10403666;28;20205;-37
2023/03/18 03:56:43;;;;;;;2.70;2.43;;;;;;;14.67;36.99;99232.31;10395912;28;20244;-37
2023/03/18 04:01:45;;;;;;;2.73;2.37;;;;;;;14.18;37.69;99274.44;10387755;28;20215;-36
2023/03/18 04:06:46;;;;;;;2.73;2.37;;;;;;;14.47;36.99;99274.78;10354636;28;20236;-36
2023/03/18 04:11:48;;;;;;;4.10;2.53;;;;;;;12.69;38.38;99248.59;10393639;28;20678;-37
2023/03/18 04:16:50;;;;;;;2.60;2.37;;;;;;;14.65;36.93;99220.94;10388234;28;20228;-37
2023/03/18 04:21:55;;;;;;;2.63;2.40;;;;;;;14.47;37.57;99227.13;10390679;28;20599;-37
2023/03/18 04:26:57;;;;;;;2.43;2.07;;;;;;;15.43;36.34;99213.91;10396191;28;21888;-37
2023/03/18 04:31:59;;;;;;;3.03;2.73;;;;;;;14.33;36.97;99282.97;10389775;28;20229;-37
2023/03/18 04:37:01;;;;;;;2.70;2.50;;;;;;;15.16;36.75;99231.53;10388790;28;20244;-36
2023/03/18 04:42:03;;;;;;;3.83;2.70;;;;;;;15.05;36.36;99214.25;10392895;28;20486;-37
2023/03/18 04:47:04;;;;;;;6.73;3.33;;;;;;;14.03;38.67;99294.38;10393366;28;20237;-37
2023/03/18 04:52:06;;;;;;;4.27;2.23;;;;;;;14.50;37.61;99279.72;10389030;28;20221;-37
2023/03/18 04:57:08;;;;;;;3.50;2.80;;;;;;;14.34;38.06;99287.34;10390588;28;20622;-37
2023/03/18 05:02:10;;;;;;;3.00;2.20;;;;;;;13.10;38.78;99268.06;10390407;28;20585;-37
2023/03/18 05:07:14;;;;;;;2.80;2.50;;;;;;;13.73;38.58;99283.44;10393264;28;20233;-37
2023/03/18 05:12:16;;;;;;;6.23;3.23;;;;;;;13.49;38.90;99279.66;10386656;28;20253;-36
2023/03/18 05:17:18;;;;;;;6.03;3.07;;;;;;;13.69;38.54;99287.59;10391280;28;20247;-37
2023/03/18 05:22:20;;;;;;;3.33;3.00;;;;;;;13.84;38.56;99274.66;10391243;28;20711;-36
2023/03/18 05:27:22;;;;;;;3.63;2.43;;;;;;;12.77;40.07;99273.53;10387157;28;20843;-35
2023/03/18 05:32:25;;;;;;;6.43;2.80;;;;;;;13.19;39.42;99290.13;10391614;28;20228;-36
2023/03/18 05:37:27;;;;;;;4.50;2.30;;;;;;;12.49;40.20;99285.41;10393866;28;20224;-35
2023/03/18 05:42:29;;;;;;;3.93;2.60;;;;;;;12.61;40.05;99296.31;10390516;28;20616;-36
2023/03/18 05:47:31;;;;;;;2.93;2.50;;;;;;;12.23;40.61;99294.25;10392739;28;20243;-36
2023/03/18 05:52:33;;;;;;;4.33;2.73;;;;;;;12.04;40.66;99280.66;10397137;28;20232;-36
2023/03/18 05:57:35;;;;;;;5.97;3.40;;;;;;;12.77;39.81;99298.53;10394433;28;20371;-36
2023/03/18 06:02:37;;;;;;;3.60;2.57;;;;;;;12.51;40.52;99294.06;10387426;28;20225;-35
2023/03/18 06:07:40;;;;;;;3.37;2.70;;;;;;;12.13;41.09;99297.34;10397375;28;20232;-36
2023/03/18 06:12:43;;;;;;;4.67;2.83;;;;;;;13.10;40.14;99278.81;10392791;28;20240;-36
2023/03/18 06:17:45;;;;;;;4.40;3.17;;;;;;;12.83;40.15;99295.00;10387044;28;20235;-37
2023/03/18 06:22:50;;;;;;;10.60;4.73;;;;;;;14.85;37.93;99217.22;10393408;28;20213;-37
2023/03/18 06:27:52;;;;;;;3.83;3.10;;;;;;;12.29;41.02;99285.38;10394649;28;20237;-35
2023/03/18 06:32:54;;;;;;;7.57;4.30;;;;;;;13.59;39.31;99314.97;10393619;28;20269;-37
2023/03/18 06:37:56;;;;;;;9.83;5.33;;;;;;;14.98;37.89;99254.75;10394979;28;20614;-37
2023/03/18 06:42:58;;;;;;;5.73;3.93;;;;;;;15.07;37.61;99269.56;10398874;28;20228;-37
2023/03/18 06:48:00;;;;;;;9.23;5.43;;;;;;;15.94;36.88;99279.13;10398024;28;20229;-35
2023/03/18 06:53:02;;;;;;;5.87;4.03;;;;;;;14.49;38.03;99330.06;10392273;28;20241;-35
2023/03/18 06:58:04;;;;;;;4.90;2.93;;;;;;;15.24;38.12;99275.16;10387646;28;20237;-35
2023/03/18 07:03:06;;;;;;;5.87;3.67;;;;;;;12.96;40.20;99323.69;10388675;28;20232;-38
2023/03/18 07:08:08;;;;;;;5.53;3.50;;;;;;;14.64;38.39;99308.13;10382861;28;20264;-36
2023/03/18 07:13:12;;;;;;;4.93;3.30;;;;;;;14.73;37.69;99306.00;10391431;28;20582;-37
2023/03/18 07:18:14;;;;;;;7.13;3.40;;;;;;;13.09;39.52;99320.13;10388710;28;20248;-37
2023/03/18 07:23:15;;;;;;;6.37;4.00;;;;;;;13.22;40.30;99346.94;10397087;28;20224;-37
2023/03/18 07:28:17;;;;;;;7.30;3.73;;;;;;;13.73;40.03;99352.53;10399349;28;20234;-37
2023/03/18 07:33:19;;;;;;;4.10;3.07;;;;;;;14.27;39.36;99343.06;10396263;28;20232;-37
2023/03/18 07:38:21;;;;;;;5.23;3.30;;;;;;;15.15;38.34;99290.00;10399176;28;20721;-36
2023/03/18 07:43:22;;;;;;;11.13;3.43;;;;;;;14.69;38.35;99332.53;10398838;28;20228;-37
2023/03/18 07:48:24;;;;;;;5.10;3.00;;;;;;;14.43;38.44;99322.03;10396909;28;20224;-37
2023/03/18 07:53:27;;;;;;;5.27;2.57;;;;;;;15.10;37.73;99312.22;10391807;28;20236;-37
2023/03/18 07:58:29;;;;;;;4.60;2.63;;;;;;;15.52;37.24;99301.53;10401674;28;20598;-37
2023/03/18 08:03:30;;;;;;;7.37;3.30;;;;;;;14.74;37.35;99348.03;10392144;28;20235;-37
2023/03/18 08:08:32;;;;;;;8.73;5.67;;;;;;;15.85;36.63;99316.41;10391101;28;20240;-37
2023/03/18 08:13:35;;;;;;;5.07;2.83;;;;;;;13.24;36.82;99236.56;10395591;28;20244;-37
2023/03/18 08:18:37;;;;;;;2.20;2.00;;;;;;;14.65;36.54;99360.16;10393517;28;20236;-37
2023/03/18 08:23:39;;;;;;;3.10;2.50;;;;;;;14.83;35.79;99381.75;10393797;28;20596;-37
2023/03/18 08:28:40;;;;;;;17.00;12.60;;;;;;;16.63;35.03;99335.31;10396494;28;20224;-37
2023/03/18 08:33:42;;;;;;;2.13;1.90;;;;;;;14.30;35.43;99384.88;10385204;28;20237;-37
2023/03/18 08:38:44;;;;;;;2.70;2.10;;;;;;;15.04;34.98;99399.34;10393006;28;20229;-37
2023/03/18 08:43:46;;;;;;;4.63;2.70;;;;;;;15.11;35.15;99391.19;10395860;28;20228;-37
2023/03/18 08:48:48;;;;;;;13.67;6.97;;;;;;;15.43;34.66;99350.59;10410982;28;20232;-37
2023/03/18 08:53:50;;;;;;;17.97;9.13;;;;;;;17.15;33.63;99335.38;10427203;28;20819;-38
2023/03/18 08:58:53;;;;;;;22.27;13.60;;;;;;;17.24;33.78;99311.50;10433729;28;20233;-37
2023/03/18 09:03:57;;;;;;;5.67;3.67;;;;;;;15.89;33.93;99351.84;10434723;28;20235;-35
2023/03/18 09:08:59;;;;;;;5.23;3.20;;;;;;;16.76;34.06;99291.84;10436750;28;20254;-37
2023/03/18 09:14:01;;;;;;;18.27;11.60;;;;;;;16.30;33.76;99311.59;10429303;28;20246;-37
2023/03/18 09:19:02;;;;;;;7.60;3.63;;;;;;;16.85;32.70;99259.84;10438282;28;20591;-37
2023/03/18 09:24:04;;;;;;;3.07;2.30;;;;;;;15.74;33.96;99319.94;10429254;28;20239;-37
2023/03/18 09:29:08;;;;;;;6.93;5.27;;;;;;;16.85;33.09;99253.66;10431828;28;20613;-37
2023/03/18 09:34:12;;;;;;;4.27;3.20;;;;;;;16.92;33.40;99292.16;10429332;28;20571;-37
2023/03/18 09:39:14;;;;;;;3.63;2.73;;;;;;;18.37;31.69;99232.28;10434423;28;20220;-36
2023/03/18 09:44:22;;;;;;;4.90;2.63;;;;;;;17.51;32.57;99235.19;10404378;28;20243;-36
2023/03/18 09:49:27;;;;;;;6.90;4.27;;;;;;;18.00;32.79;99226.53;10379006;28;20236;-37
2023/03/18 09:54:56;;;;;;;6.70;2.67;;;;;;;15.24;33.42;99225.81;10391774;28;20323;-37
2023/03/18 10:00:07;;;;;;;3.47;1.70;;;;;;;16.15;32.76;99272.34;10386436;28;20320;-37
2023/03/18 10:05:29;;;;;;;2.87;2.53;;;;;;;17.42;32.46;99217.72;10379167;28;20260;-37
2023/03/18 10:10:39;;;;;;;113.70;88.03;;;;;;;17.64;32.49;99225.97;10389313;28;20232;-37
2023/03/18 10:15:53;;;;;;;3.13;2.57;;;;;;;16.09;33.39;99311.06;10382264;28;20228;-37
2023/03/18 10:21:00;;;;;;;5.43;2.60;;;;;;;18.44;32.36;99194.97;10381899;28;20606;-37
2023/03/18 10:26:14;;;;;;;6.90;2.57;;;;;;;16.91;32.85;99253.50;10387181;28;20240;-38
2023/03/18 10:32:02;;;;;;;4.80;2.50;;;;;;;17.51;32.40;99198.16;10382267;28;20659;-37
2023/03/18 10:37:22;;;;;;;1.60;1.43;;;;;;;16.83;33.52;99270.09;10433699;28;20322;-38
2023/03/18 10:42:28;;;;;;;5.20;2.13;;;;;;;17.70;33.54;99239.34;10423521;28;20223;-35
2023/03/18 10:47:35;;;;;;;9.60;8.33;;;;;;;17.95;32.46;99202.09;10424927;28;20764;-37
2023/03/18 10:52:46;;;;;;;7.17;4.60;;;;;;;18.04;33.47;99190.59;10430701;28;20747;-37
2023/03/18 10:57:48;;;;;;;5.03;2.10;;;;;;;17.86;33.00;99186.28;10424964;28;20634;-37
2023/03/18 11:06:35;;;;;;;2.43;2.23;;;;;;;17.55;34.23;99174.13;10337697;27;20845;-73
2023/03/18 11:11:42;;;;;;;3.73;2.50;;;;;;;17.09;34.46;99197.66;10338720;28;20244;-70
2023/03/18 11:17:16;;;;;;;34.07;28.23;;;;;;;18.02;33.13;99159.44;10345940;28;20225;-69
2023/03/18 11:22:22;;;;;;;18.17;11.40;;;;;;;17.02;33.78;99176.19;10344536;28;20229;-70
2023/03/18 11:27:47;;;;;;;6.37;3.87;;;;;;;16.71;33.48;99213.38;10342187;28;20241;-70
2023/03/18 11:33:12;;;;;;;2.17;1.97;;;;;;;16.24;33.46;99227.75;10342118;28;20236;-70
2023/03/18 11:38:18;;;;;;;3.93;1.90;;;;;;;15.94;33.44;99227.03;10343071;28;20237;-70
2023/03/18 11:43:24;;;;;;;2.43;2.00;;;;;;;16.90;33.19;99224.84;10345582;28;20234;-70
2023/03/18 11:48:37;;;;;;;3.83;2.40;;;;;;;17.23;33.79;99157.66;10340850;28;20295;-70
2023/03/18 11:53:53;;;;;;;4.17;2.57;;;;;;;16.84;33.04;99181.75;10343388;28;20225;-69
2023/03/18 11:59:13;;;;;;;5.50;1.90;;;;;;;16.94;33.92;99190.06;10323338;23;20301;-36
2023/03/18 12:04:28;;;;;;;2.93;2.10;;;;;;;17.48;32.97;99139.13;10264239;28;20245;-36
2023/03/18 12:09:41;;;;;;;2.00;1.80;;;;;;;18.64;33.09;99113.13;10264657;28;20229;-37
2023/03/18 12:14:51;;;;;;;2.10;1.90;;;;;;;17.35;33.17;99178.13;10255991;28;20231;-36
2023/03/18 12:19:57;;;;;;;10.30;3.40;;;;;;;19.08;31.81;99090.53;10240333;28;20238;-35
2023/03/18 12:25:02;;;;;;;9.27;4.20;;;;;;;18.54;32.08;99109.47;10243923;28;20571;-35
2023/03/18 12:30:32;;;;;;;9.87;4.97;;;;;;;18.38;31.80;99092.25;10246206;28;20359;-35
2023/03/18 12:35:43;;;;;;;7.20;3.10;;;;;;;18.61;31.83;99118.25;10240643;28;20234;-37
2023/03/18 12:40:54;;;;;;;5.50;3.37;;;;;;;19.19;31.35;99102.28;10247217;28;20232;-35
2023/03/18 12:46:02;;;;;;;5.27;2.37;;;;;;;18.53;31.27;99115.97;10236865;28;20226;-35
2023/03/18 12:51:10;;;;;;;5.17;3.37;;;;;;;19.09;31.57;99086.75;10242685;28;20251;-36
2023/03/18 12:56:17;;;;;;;4.27;2.40;;;;;;;19.76;30.95;99069.06;10234061;28;20243;-36
2023/03/18 13:01:20;;;;;;;3.20;1.80;;;;;;;18.44;32.24;99102.88;10239125;28;20244;-35
2023/03/18 13:06:34;;;;;;;6.10;3.40;;;;;;;18.83;31.41;99064.81;10242149;28;20232;-35
2023/03/18 13:11:55;;;;;;;17.07;10.47;;;;;;;18.54;31.88;99112.19;10231079;28;20215;-38
2023/03/18 13:16:58;;;;;;;5.00;2.80;;;;;;;16.89;32.99;99117.03;10237576;28;20234;-37
2023/03/18 13:22:24;;;;;;;11.30;9.90;;;;;;;19.21;31.76;99024.19;10240582;28;20239;-36
2023/03/18 13:27:54;;;;;;;14.53;10.20;;;;;;;18.34;32.30;99086.53;10239159;28;20238;-36
2023/03/18 13:33:34;;;;;;;54.67;42.43;;;;;;;18.62;31.39;99082.78;10231360;28;20239;-36
2023/03/18 13:38:42;;;;;;;13.83;10.73;;;;;;;18.48;31.63;99086.94;10166508;29;20247;-36
2023/03/18 13:43:48;;;;;;;3.77;2.97;;;;;;;18.96;31.17;99001.25;10234040;28;20230;-36
2023/03/18 13:48:55;;;;;;;13.43;10.83;;;;;;;17.86;30.78;99102.38;10239478;28;20239;-36
2023/03/18 13:54:00;;;;;;;12.63;9.87;;;;;;;19.27;30.93;99027.78;10238193;28;20755;-36
2023/03/18 13:59:06;;;;;;;3.97;2.77;;;;;;;19.22;30.52;99025.03;10239609;28;20246;-36
2023/03/18 14:04:31;;;;;;;22.20;16.53;;;;;;;19.04;30.84;99056.88;10238759;28;20238;-36
2023/03/18 14:09:34;;;;;;;8.37;5.53;;;;;;;18.94;30.81;99022.34;10235500;28;20223;-35
2023/03/18 14:14:52;;;;;;;5.83;3.53;;;;;;;18.56;31.00;99066.72;10234297;28;20235;-36
2023/03/18 14:19:55;;;;;;;2.83;2.07;;;;;;;18.37;31.59;99069.75;10233998;28;20234;-36
2023/03/18 14:25:12;;;;;;;4.50;2.57;;;;;;;18.62;31.05;99033.16;10229598;28;20235;-36
2023/03/18 14:30:33;;;;;;;3.40;2.20;;;;;;;19.22;30.77;99004.16;10228383;28;20258;-36
2023/03/18 14:35:58;;;;;;;4.90;1.97;;;;;;;19.42;30.08;98984.47;10229663;28;20238;-36
2023/03/18 14:41:05;;;;;;;14.80;3.60;;;;;;;19.32;30.80;99011.53;10232365;28;20358;-36
2023/03/18 14:46:16;;;;;;;7.53;2.47;;;;;;;19.03;31.09;98995.63;10230010;28;20314;-36
2023/03/18 14:51:23;;;;;;;3.50;1.80;;;;;;;19.25;31.21;99017.19;10228204;28;20817;-36
2023/03/18 14:56:29;;;;;;;2.30;2.10;;;;;;;19.71;31.61;98974.06;10231400;28;20239;-37
2023/03/18 15:01:37;;;;;;;3.33;2.00;;;;;;;17.98;32.43;99044.63;10227109;28;20246;-37
2023/03/18 15:06:39;;;;;;;2.00;1.57;;;;;;;18.21;32.37;99001.03;10230954;28;20334;-35
2023/03/18 15:11:44;;;;;;;5.40;1.60;;;;;;;20.10;31.00;98904.94;10236203;28;20258;-35
2023/03/18 15:16:52;;;;;;;4.63;1.90;;;;;;;18.12;31.99;99015.25;10232677;28;20769;-37
2023/03/18 15:21:57;;;;;;;2.37;1.90;;;;;;;19.81;31.07;98939.91;10236522;28;20966;-37
2023/03/18 15:27:13;;;;;;;2.70;2.10;;;;;;;20.31;30.75;98895.75;10233340;28;20245;-37
2023/03/18 15:32:19;;;;;;;2.60;1.83;;;;;;;21.23;30.26;98907.63;10231295;28;20365;-37
2023/03/18 15:37:33;;;;;;;4.38;2.25;;;;;;;19.89;30.63;98947.50;10231557;28;20726;-36
2023/03/18 15:42:35;;;;;;;3.17;2.35;;;;;;;20.94;30.96;98924.56;10222506;28;20235;-37
2023/03/18 15:47:36;;;;;;;9.23;4.73;;;;;;;21.13;30.57;98910.38;10223083;28;20247;-36
2023/03/18 15:52:41;;;;;;;6.68;3.65;;;;;;;21.38;29.83;98902.16;10225424;28;20578;-37
2023/03/18 15:57:43;;;;;;;10.45;5.45;;;;;;;21.29;30.00;98909.25;10233121;28;20318;-37
2023/03/18 16:02:45;;;;;;;10.00;6.03;;;;;;;20.63;29.66;98901.97;10223851;28;20239;-37
2023/03/18 16:07:47;;;;;;;5.33;3.67;;;;;;;20.55;30.07;98933.25;10232441;28;20240;-37
2023/03/18 16:12:53;;;;;;;6.63;3.37;;;;;;;20.96;30.52;98925.09;10229558;28;20302;-36
2023/03/18 16:17:56;;;;;;;9.77;7.07;;;;;;;21.14;30.59;98925.59;10228688;28;20230;-37
2023/03/18 16:22:58;;;;;;;4.30;2.47;;;;;;;21.02;30.11;98913.13;10230092;28;20228;-37
2023/03/18 16:28:00;;;;;;;4.50;2.97;;;;;;;21.08;30.54;98902.22;10231012;28;20262;-37
2023/03/18 16:33:05;;;;;;;8.13;4.53;;;;;;;21.10;30.72;98889.16;10238665;28;20223;-36
2023/03/18 16:38:15;;;;;;;11.57;5.40;;;;;;;21.36;31.13;98904.34;10234766;28;20239;-36
2023/03/18 16:43:23;;;;;;;5.50;3.50;;;;;;;20.41;32.30;98978.34;10232505;28;20506;-36
2023/03/18 16:48:25;;;;;;;5.77;3.67;;;;;;;21.47;31.45;98917.91;10235219;28;20249;-36
2023/03/18 16:53:30;;;;;;;5.53;3.70;;;;;;;21.47;30.85;98896.13;10234210;28;20243;-36
2023/03/18 16:58:34;;;;;;;10.50;6.93;;;;;;;20.48;32.27;98947.13;10231651;28;20235;-36
2023/03/18 17:03:36;;;;;;;4.50;2.80;;;;;;;20.42;31.52;98974.56;10237462;28;20642;-36
2023/03/18 17:08:38;;;;;;;4.87;3.30;;;;;;;19.71;31.46;99003.09;10233447;28;20556;-36
2023/03/18 17:13:40;;;;;;;3.87;2.50;;;;;;;19.00;32.27;99015.91;10229991;28;20580;-36
2023/03/18 17:18:42;;;;;;;4.80;2.73;;;;;;;20.72;31.50;98945.75;10240349;28;20577;-36
2023/03/18 17:23:44;;;;;;;3.40;2.60;;;;;;;19.82;32.52;98980.31;10235385;28;20259;-36
2023/03/18 17:28:48;;;;;;;4.03;2.50;;;;;;;21.30;31.41;98937.25;10230684;28;20215;-36
2023/03/18 17:33:50;;;;;;;24.30;19.17;;;;;;;20.82;31.74;98978.41;10226896;28;20235;-36
2023/03/18 17:38:57;;;;;;;8.70;4.53;;;;;;;21.13;31.15;98922.06;10225128;28;20219;-37
2023/03/18 17:43:59;;;;;;;9.80;6.93;;;;;;;20.09;32.42;98984.75;10224231;28;20251;-36
2023/03/18 17:49:02;;;;;;;8.13;6.03;;;;;;;19.54;33.74;99008.69;10225690;28;20238;-36
2023/03/18 17:54:05;;;;;;;12.27;8.03;;;;;;;20.33;33.38;98992.44;10235955;28;20598;-36
2023/03/18 17:59:15;;;;;;;14.30;7.50;;;;;;;20.40;32.84;98977.53;10232589;28;20231;-36
2023/03/18 18:04:19;;;;;;;20.30;12.77;;;;;;;21.03;32.56;98960.97;10235762;28;20614;-36
2023/03/18 18:09:21;;;;;;;17.73;11.00;;;;;;;20.60;33.44;98957.72;10233961;28;20239;-36
2023/03/18 18:14:27;;;;;;;11.73;6.57;;;;;;;20.68;32.34;98962.63;10230957;28;20231;-37
2023/03/18 18:19:29;;;;;;;8.73;5.27;;;;;;;19.98;33.42;99010.28;10231355;28;20602;-37
2023/03/18 18:24:32;;;;;;;8.00;4.93;;;;;;;20.29;32.66;98974.00;10238561;28;20235;-37
2023/03/18 18:29:33;;;;;;;7.33;4.23;;;;;;;18.85;33.98;99004.91;10231410;28;20659;-37
2023/03/18 18:34:35;;;;;;;6.63;4.40;;;;;;;19.36;33.09;99013.44;10230370;28;20606;-37
2023/03/18 18:39:37;;;;;;;7.77;4.30;;;;;;;19.53;32.48;99024.13;10232874;28;20235;-38
2023/03/18 18:44:39;;;;;;;7.50;3.90;;;;;;;18.28;33.16;99019.78;10234044;28;20827;-37
2023/03/18 18:49:41;;;;;;;5.27;3.60;;;;;;;19.73;32.07;98999.03;10230106;28;20235;-37
2023/03/18 18:54:43;;;;;;;5.73;3.70;;;;;;;19.16;32.09;99038.53;10233081;28;20228;-37
2023/03/18 18:59:46;;;;;;;4.90;3.40;;;;;;;20.04;31.80;99036.34;10234789;28;20756;-38
2023/03/18 19:04:48;;;;;;;6.30;3.30;;;;;;;19.38;32.44;99024.88;10228191;28;20818;-39
2023/03/18 19:09:50;;;;;;;5.53;3.40;;;;;;;19.12;33.82;99045.56;10242369;28;20621;-38
2023/03/18 19:14:52;;;;;;;15.10;9.73;;;;;;;19.54;35.44;99017.63;10227542;28;20231;-37
2023/03/18 19:19:54;;;;;;;8.50;3.67;;;;;;;18.38;34.47;99033.47;10233432;28;20231;-38
2023/03/18 19:24:56;;;;;;;7.53;3.87;;;;;;;18.76;33.62;99033.56;10229186;28;20234;-37
2023/03/18 19:30:00;;;;;;;10.53;8.20;;;;;;;18.97;33.71;99042.72;10239907;28;20352;-44
2023/03/18 19:35:02;;;;;;;14.17;9.00;;;;;;;18.52;33.50;99060.16;10237217;28;20239;-37
2023/03/18 19:40:20;;;;;;;11.73;8.60;;;;;;;18.03;33.87;99060.91;10238368;28;20242;-39
2023/03/18 19:45:22;;;;;;;12.03;8.07;;;;;;;18.24;33.71;99083.66;10239144;28;20242;-37
2023/03/18 19:50:23;;;;;;;13.97;7.57;;;;;;;18.65;32.60;99049.72;10242741;28;20239;-37
2023/03/18 19:55:26;;;;;;;7.23;4.47;;;;;;;19.35;31.94;99046.25;10241396;28;20228;-37
2023/03/18 20:00:29;;;;;;;6.53;5.07;;;;;;;19.39;31.92;99083.44;10241578;28;20253;-38
2023/03/18 20:05:30;;;;;;;17.80;9.03;;;;;;;14.39;38.44;98926.81;10239659;28;20238;-37
2023/03/18 20:10:33;;;;;;;27.27;20.10;;;;;;;16.74;39.09;99121.06;10239226;28;20227;-37
2023/03/18 20:15:35;;;;;;;15.27;9.60;;;;;;;19.21;35.02;99035.03;10241283;28;20242;-37
2023/03/18 20:20:36;;;;;;;9.60;7.10;;;;;;;18.78;34.36;99081.03;10245268;28;20235;-37
2023/03/18 20:25:42;;;;;;;12.30;8.13;;;;;;;19.94;33.67;99064.28;10234876;28;20259;-37
2023/03/18 20:30:46;;;;;;;12.50;8.63;;;;;;;19.10;33.01;99098.44;10244930;28;20230;-38
2023/03/18 20:35:51;;;;;;;11.43;6.73;;;;;;;18.00;34.19;99142.63;10225576;28;20238;-37
2023/03/18 20:40:53;;;;;;;10.00;7.13;;;;;;;20.05;32.31;99052.38;10226757;28;20714;-36
2023/03/18 20:45:56;;;;;;;7.30;4.83;;;;;;;20.21;31.16;99057.88;10223956;28;20705;-37
2023/03/18 20:50:58;;;;;;;9.63;6.43;;;;;;;17.94;34.81;99178.81;10229801;28;20236;-37
2023/03/18 20:56:00;;;;;;;21.97;14.57;;;;;;;19.21;35.34;99094.69;10229291;28;20235;-37
2023/03/18 21:01:02;;;;;;;14.00;10.83;;;;;;;19.10;34.47;99085.69;10235892;28;20752;-37
2023/03/18 21:06:05;;;;;;;12.60;7.97;;;;;;;18.62;34.50;99130.69;10237666;28;20640;-37
2023/03/18 21:11:20;;;;;;;13.47;6.47;;;;;;;17.76;34.83;99159.06;10238618;28;20305;-37
2023/03/18 21:16:22;;;;;;;8.40;6.30;;;;;;;16.94;35.74;99155.75;10235566;28;20234;-37
2023/03/18 21:21:30;;;;;;;10.60;6.30;;;;;;;16.03;37.44;99177.09;10236651;28;20239;-36
2023/03/18 21:26:31;;;;;;;9.13;6.97;;;;;;;17.65;35.89;99160.00;10234409;28;20326;-37
2023/03/18 21:31:35;;;;;;;10.33;5.43;;;;;;;16.34;36.18;99184.00;10234987;28;20222;-37
2023/03/18 21:36:37;;;;;;;12.33;6.50;;;;;;;18.16;34.47;99136.34;10234309;28;20583;-37
2023/03/18 21:41:38;;;;;;;10.30;7.80;;;;;;;16.34;35.87;99196.69;10233005;28;20609;-37
2023/03/18 21:46:40;;;;;;;11.10;6.83;;;;;;;17.72;34.95;99166.84;10242077;28;20251;-37
2023/03/18 21:51:42;;;;;;;9.80;6.53;;;;;;;17.24;35.02;99199.81;10233459;28;20591;-37
2023/03/18 21:56:44;;;;;;;10.90;7.10;;;;;;;16.57;34.98;99185.03;10233238;28;20713;-36
2023/03/18 22:01:45;;;;;;;12.97;8.67;;;;;;;16.23;36.16;99220.72;10236708;28;20769;-38
2023/03/18 22:06:47;;;;;;;12.40;6.10;;;;;;;16.44;36.04;99205.81;10236859;28;20707;-38
2023/03/18 22:11:49;;;;;;;7.90;5.10;;;;;;;18.19;34.90;99157.50;10227086;28;20219;-36
2023/03/18 22:16:50;;;;;;;6.43;5.00;;;;;;;16.91;35.45;99207.56;10232293;28;20243;-37
2023/03/18 22:21:52;;;;;;;8.13;6.77;;;;;;;17.10;35.59;99202.81;10231168;28;20713;-37
2023/03/18 22:26:54;;;;;;;9.33;6.87;;;;;;;17.06;35.61;99236.00;10236279;28;20239;-37
2023/03/18 22:31:56;;;;;;;7.90;4.77;;;;;;;16.06;36.42;99247.59;10233464;28;20629;-37
2023/03/18 22:36:57;;;;;;;7.50;5.43;;;;;;;16.23;35.56;99214.50;10234383;28;20590;-37
2023/03/18 22:41:59;;;;;;;7.90;5.80;;;;;;;14.89;37.15;99232.69;10232672;28;20259;-37
2023/03/18 22:47:01;;;;;;;7.30;5.33;;;;;;;15.86;36.60;99239.03;10236411;28;20282;-37
2023/03/18 22:52:03;;;;;;;10.27;5.93;;;;;;;16.95;36.14;99199.84;10234972;28;20227;-36
2023/03/18 22:57:05;;;;;;;7.87;6.17;;;;;;;15.97;38.43;99224.69;10233605;28;20624;-37
2023/03/18 23:02:19;;;;;;;5.93;3.70;;;;;;;15.93;37.26;99228.94;10229281;28;20247;-37
2023/03/18 23:07:26;;;;;;;5.37;4.30;;;;;;;16.36;38.95;99186.47;10234953;28;20239;-36
2023/03/18 23:12:31;;;;;;;5.70;4.47;;;;;;;17.63;35.42;99172.91;10231853;28;20323;-37
2023/03/18 23:17:33;;;;;;;9.93;5.80;;;;;;;14.54;40.63;99257.53;10224984;28;20231;-37
2023/03/18 23:22:34;;;;;;;8.00;4.50;;;;;;;16.18;38.90;99201.72;10230422;28;20635;-36
2023/03/18 23:27:36;;;;;;;6.83;4.30;;;;;;;12.74;42.38;99274.81;10233483;28;20231;-36
2023/03/18 23:32:39;;;;;;;6.97;4.70;;;;;;;16.30;37.84;99187.41;10233385;28;20235;-37
2023/03/18 23:37:41;;;;;;;9.13;5.17;;;;;;;14.13;41.35;99236.59;10231715;28;20717;-37
2023/03/18 23:42:44;;;;;;;7.97;4.53;;;;;;;14.01;42.36;99236.47;10236599;28;20239;-37